sensor_id;sensor_type;location;lat;lon;timestamp;pressure;altitude;pressure_sealevel;temperature;humidity
58973;BME280;44750;52.040;7.472;2023-09-19T00:01:20;100430.94;;;16.38;100.00
58973;BME280;44750;52.040;7.472;2023-09-19T00:06:21;100442.31;;;16.42;100.00
58973;BME280;44750;52.040;7.472;2023-09-19T00:11:21;100434.38;;;16.47;100.00
58973;BME280;44750;52.040;7.472;2023-09-19T00:16:21;100422.41;;;16.48;100.00
58973;BME280;44750;52.040;7.472;2023-09-19T00:21:21;100419.25;;;16.51;100.00
58973;BME280;44750;52.040;7.472;2023-09-19T00:26:21;100403.69;;;16.45;100.00
58973;BME280;44750;52.040;7.472;2023-09-19T00:31:22;100406.47;;;16.51;100.00
58973;BME280;44750;52.040;7.472;2023-09-19T00:36:22;100352.31;;;16.33;100.00
58973;BME280;44750;52.040;7.472;2023-09-19T00:41:22;100349.38;;;16.35;100.00
58973;BME280;44750;52.040;7.472;2023-09-19T00:46:22;100353.81;;;16.36;100.00
58973;BME280;44750;52.040;7.472;2023-09-19T00:51:23;100366.28;;;16.45;100.00
58973;BME280;44750;52.040;7.472;2023-09-19T00:56:23;100363.78;;;16.50;100.00
58973;BME280;44750;52.040;7.472;2023-09-19T01:01:24;100308.84;;;16.32;100.00
58973;BME280;44750;52.040;7.472;2023-09-19T01:06:24;100304.84;;;16.34;100.00
58973;BME280;44750;52.040;7.472;2023-09-19T01:11:28;100320.00;;;16.37;100.00
58973;BME280;44750;52.040;7.472;2023-09-19T01:16:42;100291.78;;;16.30;100.00
58973;BME280;44750;52.040;7.472;2023-09-19T01:27:43;100267.59;;;16.20;100.00
58973;BME280;44750;52.040;7.472;2023-09-19T01:32:54;100257.91;;;16.17;100.00
58973;BME280;44750;52.040;7.472;2023-09-19T01:37:55;100258.09;;;16.16;100.00
58973;BME280;44750;52.040;7.472;2023-09-19T01:43:05;100281.66;;;16.17;100.00
58973;BME280;44750;52.040;7.472;2023-09-19T01:48:19;100258.47;;;16.06;100.00
58973;BME280;44750;52.040;7.472;2023-09-19T01:53:27;100272.78;;;16.15;100.00
58973;BME280;44750;52.040;7.472;2023-09-19T01:58:34;100258.53;;;16.13;100.00
58973;BME280;44750;52.040;7.472;2023-09-19T02:03:35;100246.50;;;16.07;100.00
58973;BME280;44750;52.040;7.472;2023-09-19T02:08:36;100207.31;;;15.86;100.00
58973;BME280;44750;52.040;7.472;2023-09-19T02:13:38;100224.75;;;15.85;100.00
58973;BME280;44750;52.040;7.472;2023-09-19T02:18:39;100214.16;;;15.76;100.00
58973;BME280;44750;52.040;7.472;2023-09-19T02:23:39;100237.66;;;15.77;100.00
58973;BME280;44750;52.040;7.472;2023-09-19T02:28:40;100235.06;;;15.68;100.00
58973;BME280;44750;52.040;7.472;2023-09-19T02:33:40;100248.41;;;15.57;100.00
58973;BME280;44750;52.040;7.472;2023-09-19T02:38:40;100270.44;;;15.55;100.00
58973;BME280;44750;52.040;7.472;2023-09-19T02:43:40;100263.28;;;15.54;100.00
58973;BME280;44750;52.040;7.472;2023-09-19T02:48:41;100267.44;;;15.50;100.00
58973;BME280;44750;52.040;7.472;2023-09-19T02:53:41;100261.31;;;15.41;100.00
58973;BME280;44750;52.040;7.472;2023-09-19T02:58:41;100288.84;;;15.46;100.00
58973;BME280;44750;52.040;7.472;2023-09-19T03:03:41;100281.91;;;15.44;100.00
58973;BME280;44750;52.040;7.472;2023-09-19T03:08:43;100262.94;;;15.35;nan
58973;BME280;44750;52.040;7.472;2023-09-19T03:13:44;100250.13;;;15.36;nan
58973;BME280;44750;52.040;7.472;2023-09-19T03:18:45;100222.50;;;15.17;nan
58973;BME280;44750;52.040;7.472;2023-09-19T03:23:45;100258.72;;;15.33;nan
58973;BME280;44750;52.040;7.472;2023-09-19T03:28:47;100225.06;;;15.26;nan
58973;BME280;44750;52.040;7.472;2023-09-19T03:33:47;100210.16;;;15.21;nan
58973;BME280;44750;52.040;7.472;2023-09-19T03:38:47;100196.91;;;15.18;nan
58973;BME280;44750;52.040;7.472;2023-09-19T03:43:47;100167.19;;;15.02;nan
58973;BME280;44750;52.040;7.472;2023-09-19T03:48:47;100162.84;;;15.08;nan
58973;BME280;44750;52.040;7.472;2023-09-19T03:53:48;100146.44;;;15.01;nan
58973;BME280;44750;52.040;7.472;2023-09-19T03:58:48;100143.72;;;15.01;nan
58973;BME280;44750;52.040;7.472;2023-09-19T04:03:48;100108.59;;;14.91;nan
58973;BME280;44750;52.040;7.472;2023-09-19T04:08:49;100102.28;;;14.84;nan
58973;BME280;44750;52.040;7.472;2023-09-19T04:13:49;100101.41;;;14.83;nan
58973;BME280;44750;52.040;7.472;2023-09-19T04:18:49;100081.72;;;14.81;nan
58973;BME280;44750;52.040;7.472;2023-09-19T04:23:49;100064.53;;;14.81;nan
58973;BME280;44750;52.040;7.472;2023-09-19T04:28:49;100052.31;;;14.77;nan
58973;BME280;44750;52.040;7.472;2023-09-19T04:33:50;100014.44;;;14.60;nan
58973;BME280;44750;52.040;7.472;2023-09-19T04:38:50;100020.22;;;14.72;nan
58973;BME280;44750;52.040;7.472;2023-09-19T04:43:50;99972.75;;;14.60;nan
58973;BME280;44750;52.040;7.472;2023-09-19T04:48:50;99954.00;;;14.50;nan
58973;BME280;44750;52.040;7.472;2023-09-19T04:53:51;99931.69;;;14.33;nan
58973;BME280;44750;52.040;7.472;2023-09-19T04:58:51;99962.28;;;14.35;nan
58973;BME280;44750;52.040;7.472;2023-09-19T05:03:51;99961.25;;;14.36;nan
58973;BME280;44750;52.040;7.472;2023-09-19T05:08:51;99949.38;;;14.44;nan
58973;BME280;44750;52.040;7.472;2023-09-19T05:13:51;99939.72;;;14.41;nan
58973;BME280;44750;52.040;7.472;2023-09-19T05:18:52;99905.81;;;14.44;nan
58973;BME280;44750;52.040;7.472;2023-09-19T05:23:52;99863.59;;;14.26;nan
58973;BME280;44750;52.040;7.472;2023-09-19T05:28:52;99846.00;;;14.29;nan
58973;BME280;44750;52.040;7.472;2023-09-19T05:33:52;99832.63;;;14.34;nan
58973;BME280;44750;52.040;7.472;2023-09-19T05:38:53;99811.09;;;14.39;nan
58973;BME280;44750;52.040;7.472;2023-09-19T05:43:53;99773.19;;;14.37;nan
58973;BME280;44750;52.040;7.472;2023-09-19T05:48:55;99741.53;;;14.36;nan
58973;BME280;44750;52.040;7.472;2023-09-19T05:53:55;99713.31;;;14.44;nan
58973;BME280;44750;52.040;7.472;2023-09-19T05:58:56;99684.03;;;14.53;nan
58973;BME280;44750;52.040;7.472;2023-09-19T06:03:56;99670.88;;;14.63;nan
58973;BME280;44750;52.040;7.472;2023-09-19T06:08:58;99654.16;;;14.73;nan
58973;BME280;44750;52.040;7.472;2023-09-19T06:13:58;99636.78;;;14.81;nan
58973;BME280;44750;52.040;7.472;2023-09-19T06:18:58;99619.81;;;14.92;nan
58973;BME280;44750;52.040;7.472;2023-09-19T06:23:59;99603.47;;;14.99;nan
58973;BME280;44750;52.040;7.472;2023-09-19T06:28:59;99603.47;;;15.05;nan
58973;BME280;44750;52.040;7.472;2023-09-19T06:33:59;99567.44;;;14.97;nan
58973;BME280;44750;52.040;7.472;2023-09-19T06:39:00;99599.28;;;15.03;nan
58973;BME280;44750;52.040;7.472;2023-09-19T06:44:00;99574.31;;;14.93;nan
58973;BME280;44750;52.040;7.472;2023-09-19T06:49:01;99610.16;;;14.96;nan
58973;BME280;44750;52.040;7.472;2023-09-19T06:54:02;99595.28;;;14.85;nan
58973;BME280;44750;52.040;7.472;2023-09-19T06:59:02;99657.53;;;15.02;nan
58973;BME280;44750;52.040;7.472;2023-09-19T07:04:03;99683.56;;;15.25;nan
58973;BME280;44750;52.040;7.472;2023-09-19T07:09:03;99718.41;;;15.49;nan
58973;BME280;44750;52.040;7.472;2023-09-19T07:14:03;99723.41;;;15.72;nan
58973;BME280;44750;52.040;7.472;2023-09-19T07:19:04;99694.47;;;15.85;nan
58973;BME280;44750;52.040;7.472;2023-09-19T07:24:04;99649.13;;;15.84;nan
58973;BME280;44750;52.040;7.472;2023-09-19T07:29:05;99621.03;;;15.83;nan
58973;BME280;44750;52.040;7.472;2023-09-19T07:34:05;99606.28;;;15.91;nan
58973;BME280;44750;52.040;7.472;2023-09-19T07:39:05;99615.88;;;16.07;nan
58973;BME280;44750;52.040;7.472;2023-09-19T07:44:05;99586.03;;;16.12;nan
58973;BME280;44750;52.040;7.472;2023-09-19T07:49:07;99578.00;;;16.24;nan
58973;BME280;44750;52.040;7.472;2023-09-19T07:54:08;99576.25;;;16.36;nan
58973;BME280;44750;52.040;7.472;2023-09-19T07:59:08;99604.84;;;16.66;nan
58973;BME280;44750;52.040;7.472;2023-09-19T08:04:08;99568.06;;;16.68;nan
58973;BME280;44750;52.040;7.472;2023-09-19T08:09:09;99549.56;;;16.70;nan
58973;BME280;44750;52.040;7.472;2023-09-19T08:14:09;99546.47;;;16.92;nan
58973;BME280;44750;52.040;7.472;2023-09-19T08:19:10;99542.31;;;17.08;nan
58973;BME280;44750;52.040;7.472;2023-09-19T08:24:10;99544.09;;;17.21;nan
58973;BME280;44750;52.040;7.472;2023-09-19T08:29:10;99469.88;;;17.17;nan
58973;BME280;44750;52.040;7.472;2023-09-19T08:34:10;99486.97;;;17.31;nan
58973;BME280;44750;52.040;7.472;2023-09-19T08:39:11;99496.38;;;17.72;nan
58973;BME280;44750;52.040;7.472;2023-09-19T08:44:11;99397.22;;;17.59;nan
58973;BME280;44750;52.040;7.472;2023-09-19T08:49:49;99375.31;;;17.59;nan
58973;BME280;44750;52.040;7.472;2023-09-19T08:54:59;99349.31;;;17.68;nan
58973;BME280;44750;52.040;7.472;2023-09-19T09:00:02;99323.84;;;17.79;nan
58973;BME280;44750;52.040;7.472;2023-09-19T09:05:04;99328.69;;;17.96;nan
58973;BME280;44750;52.040;7.472;2023-09-19T09:10:04;99260.97;;;18.03;nan
58973;BME280;44750;52.040;7.472;2023-09-19T09:15:05;99203.94;;;18.24;nan
58973;BME280;44750;52.040;7.472;2023-09-19T09:20:06;99217.81;;;18.46;nan
58973;BME280;44750;52.040;7.472;2023-09-19T09:25:07;99171.84;;;18.48;nan
58973;BME280;44750;52.040;7.472;2023-09-19T09:30:08;99197.19;;;18.96;nan
58973;BME280;44750;52.040;7.472;2023-09-19T09:35:08;99142.34;;;18.96;nan
58973;BME280;44750;52.040;7.472;2023-09-19T09:40:08;99133.22;;;19.07;nan
58973;BME280;44750;52.040;7.472;2023-09-19T09:50:26;99025.47;;;18.78;nan
58973;BME280;44750;52.040;7.472;2023-09-19T09:55:26;98947.41;;;18.29;nan
58973;BME280;44750;52.040;7.472;2023-09-19T10:00:27;99043.41;;;18.51;nan
58973;BME280;44750;52.040;7.472;2023-09-19T10:05:27;99093.34;;;18.99;nan
58973;BME280;44750;52.040;7.472;2023-09-19T10:15:32;98954.97;;;19.07;nan
58973;BME280;44750;52.040;7.472;2023-09-19T10:20:32;98964.38;;;19.33;nan
58973;BME280;44750;52.040;7.472;2023-09-19T10:25:36;98973.34;;;19.68;nan
58973;BME280;44750;52.040;7.472;2023-09-19T10:30:44;98916.81;;;19.72;nan
58973;BME280;44750;52.040;7.472;2023-09-19T10:35:46;98848.84;;;19.79;nan
58973;BME280;44750;52.040;7.472;2023-09-19T10:40:51;98851.81;;;19.78;nan
58973;BME280;44750;52.040;7.472;2023-09-19T10:45:53;98829.22;;;19.93;nan
58973;BME280;44750;52.040;7.472;2023-09-19T10:51:09;98775.41;;;19.92;nan
58973;BME280;44750;52.040;7.472;2023-09-19T10:56:26;98722.47;;;20.01;nan
58973;BME280;44750;52.040;7.472;2023-09-19T11:01:42;98644.06;;;19.46;nan
58973;BME280;44750;52.040;7.472;2023-09-19T11:06:42;98702.66;;;19.94;nan
58973;BME280;44750;52.040;7.472;2023-09-19T11:11:44;98669.69;;;20.42;nan
58973;BME280;44750;52.040;7.472;2023-09-19T11:22:05;98556.50;;;20.61;nan
58973;BME280;44750;52.040;7.472;2023-09-19T11:27:10;98467.72;;;20.60;nan
58973;BME280;44750;52.040;7.472;2023-09-19T11:32:11;98386.34;;;20.64;nan
58973;BME280;44750;52.040;7.472;2023-09-19T11:42:45;98249.56;;;20.41;nan
58973;BME280;44750;52.040;7.472;2023-09-19T11:47:47;98277.28;;;20.44;nan
58973;BME280;44750;52.040;7.472;2023-09-19T11:52:49;98108.44;;;20.16;nan
58973;BME280;44750;52.040;7.472;2023-09-19T11:57:54;98200.72;;;20.12;nan
58973;BME280;44750;52.040;7.472;2023-09-19T12:02:55;98218.00;;;20.28;nan
58973;BME280;44750;52.040;7.472;2023-09-19T12:07:59;98171.88;;;20.09;nan
58973;BME280;44750;52.040;7.472;2023-09-19T12:12:59;98144.41;;;20.09;nan
58973;BME280;44750;52.040;7.472;2023-09-19T12:18:00;98227.84;;;20.39;nan
58973;BME280;44750;52.040;7.472;2023-09-19T12:23:00;98203.06;;;20.54;nan
58973;BME280;44750;52.040;7.472;2023-09-19T12:28:00;98243.72;;;20.58;nan
58973;BME280;44750;52.040;7.472;2023-09-19T12:33:02;98071.81;;;20.31;nan
58973;BME280;44750;52.040;7.472;2023-09-19T12:38:03;98144.88;;;20.37;nan
58973;BME280;44750;52.040;7.472;2023-09-19T12:43:03;98188.78;;;20.52;nan
58973;BME280;44750;52.040;7.472;2023-09-19T12:48:25;98099.66;;;20.09;nan
58973;BME280;44750;52.040;7.472;2023-09-19T12:53:26;98263.53;;;20.44;nan
58973;BME280;44750;52.040;7.472;2023-09-19T12:58:26;98135.09;;;20.10;nan
58973;BME280;44750;52.040;7.472;2023-09-19T13:03:29;98207.00;;;20.33;nan
58973;BME280;44750;52.040;7.472;2023-09-19T13:08:31;98184.41;;;20.51;nan
58973;BME280;44750;52.040;7.472;2023-09-19T13:13:33;98126.16;;;20.44;nan
58973;BME280;44750;52.040;7.472;2023-09-19T13:18:53;98109.66;;;20.49;nan
58973;BME280;44750;52.040;7.472;2023-09-19T13:23:55;98137.16;;;20.44;nan
58973;BME280;44750;52.040;7.472;2023-09-19T13:28:56;98092.13;;;20.35;nan
58973;BME280;44750;52.040;7.472;2023-09-19T13:33:56;98167.50;;;20.84;nan
58973;BME280;44750;52.040;7.472;2023-09-19T13:38:56;98042.50;;;20.66;nan
58973;BME280;44750;52.040;7.472;2023-09-19T13:43:56;98062.44;;;20.92;nan
58973;BME280;44750;52.040;7.472;2023-09-19T13:48:56;98017.72;;;21.11;nan
58973;BME280;44750;52.040;7.472;2023-09-19T13:53:59;97877.34;;;20.97;nan
58973;BME280;44750;52.040;7.472;2023-09-19T13:59:00;97848.50;;;20.65;nan
58973;BME280;44750;52.040;7.472;2023-09-19T14:04:00;97729.31;;;20.31;nan
58973;BME280;44750;52.040;7.472;2023-09-19T14:09:00;97793.81;;;20.34;nan
58973;BME280;44750;52.040;7.472;2023-09-19T14:14:00;97792.66;;;20.40;nan
58973;BME280;44750;52.040;7.472;2023-09-19T14:19:01;97840.91;;;20.51;nan
58973;BME280;44750;52.040;7.472;2023-09-19T14:24:01;97857.44;;;20.46;nan
58973;BME280;44750;52.040;7.472;2023-09-19T14:29:01;97914.84;;;20.48;nan
58973;BME280;44750;52.040;7.472;2023-09-19T14:34:02;97831.31;;;20.19;nan
58973;BME280;44750;52.040;7.472;2023-09-19T14:39:02;97978.56;;;20.50;nan
58973;BME280;44750;52.040;7.472;2023-09-19T14:44:03;97929.13;;;20.50;nan
58973;BME280;44750;52.040;7.472;2023-09-19T14:49:03;97832.41;;;20.18;nan
58973;BME280;44750;52.040;7.472;2023-09-19T14:54:03;97897.75;;;20.21;nan
58973;BME280;44750;52.040;7.472;2023-09-19T14:59:04;97852.03;;;20.01;nan
58973;BME280;44750;52.040;7.472;2023-09-19T15:04:04;97916.34;;;19.90;nan
58973;BME280;44750;52.040;7.472;2023-09-19T15:09:06;97927.06;;;19.76;nan
58973;BME280;44750;52.040;7.472;2023-09-19T15:14:06;98046.19;;;19.85;nan
58973;BME280;44750;52.040;7.472;2023-09-19T15:19:06;98082.13;;;19.94;nan
58973;BME280;44750;52.040;7.472;2023-09-19T15:24:07;98041.78;;;19.84;nan
58973;BME280;44750;52.040;7.472;2023-09-19T15:29:07;98062.13;;;19.83;nan
58973;BME280;44750;52.040;7.472;2023-09-19T15:34:08;98107.94;;;19.88;nan
58973;BME280;44750;52.040;7.472;2023-09-19T15:39:08;98104.41;;;19.87;nan
58973;BME280;44750;52.040;7.472;2023-09-19T15:44:14;98129.09;;;19.82;nan
58973;BME280;44750;52.040;7.472;2023-09-19T15:49:14;98132.38;;;19.79;nan
58973;BME280;44750;52.040;7.472;2023-09-19T15:54:15;98075.84;;;19.63;nan
58973;BME280;44750;52.040;7.472;2023-09-19T15:59:15;98150.22;;;19.61;nan
58973;BME280;44750;52.040;7.472;2023-09-19T16:04:17;98179.31;;;19.62;nan
58973;BME280;44750;52.040;7.472;2023-09-19T16:09:17;98181.78;;;19.59;nan
58973;BME280;44750;52.040;7.472;2023-09-19T16:14:17;98151.31;;;19.50;nan
58973;BME280;44750;52.040;7.472;2023-09-19T16:19:17;98202.09;;;19.47;nan
58973;BME280;44750;52.040;7.472;2023-09-19T16:24:18;98192.22;;;19.41;nan
58973;BME280;44750;52.040;7.472;2023-09-19T16:29:18;98199.34;;;19.37;nan
58973;BME280;44750;52.040;7.472;2023-09-19T16:34:18;98212.47;;;19.35;nan
58973;BME280;44750;52.040;7.472;2023-09-19T16:39:18;98221.00;;;19.38;nan
58973;BME280;44750;52.040;7.472;2023-09-19T16:44:19;98234.16;;;19.31;nan
58973;BME280;44750;52.040;7.472;2023-09-19T16:49:19;98227.56;;;19.27;nan
58973;BME280;44750;52.040;7.472;2023-09-19T16:54:19;98222.06;;;19.12;nan
58973;BME280;44750;52.040;7.472;2023-09-19T16:59:19;98227.50;;;19.07;nan
58973;BME280;44750;52.040;7.472;2023-09-19T17:04:20;98254.94;;;19.07;nan
58973;BME280;44750;52.040;7.472;2023-09-19T17:09:20;98277.13;;;19.00;nan
58973;BME280;44750;52.040;7.472;2023-09-19T17:14:20;98336.31;;;18.96;nan
58973;BME280;44750;52.040;7.472;2023-09-19T17:19:20;98349.94;;;18.85;nan
58973;BME280;44750;52.040;7.472;2023-09-19T17:24:21;98381.81;;;18.92;nan
58973;BME280;44750;52.040;7.472;2023-09-19T17:29:22;98389.97;;;18.86;nan
58973;BME280;44750;52.040;7.472;2023-09-19T17:34:23;98432.22;;;18.91;nan
58973;BME280;44750;52.040;7.472;2023-09-19T17:39:23;98460.75;;;18.95;nan
58973;BME280;44750;52.040;7.472;2023-09-19T17:44:23;98446.50;;;18.93;nan
58973;BME280;44750;52.040;7.472;2023-09-19T17:49:23;98470.91;;;18.94;nan
58973;BME280;44750;52.040;7.472;2023-09-19T17:54:23;98457.97;;;18.90;nan
58973;BME280;44750;52.040;7.472;2023-09-19T17:59:24;98482.88;;;18.88;nan
58973;BME280;44750;52.040;7.472;2023-09-19T18:04:28;98512.31;;;18.93;nan
58973;BME280;44750;52.040;7.472;2023-09-19T18:09:29;98531.22;;;18.94;nan
58973;BME280;44750;52.040;7.472;2023-09-19T18:14:30;98533.66;;;18.91;nan
58973;BME280;44750;52.040;7.472;2023-09-19T18:19:30;98530.56;;;18.87;nan
58973;BME280;44750;52.040;7.472;2023-09-19T18:24:31;98576.44;;;18.92;nan
58973;BME280;44750;52.040;7.472;2023-09-19T18:29:32;98585.72;;;18.91;nan
58973;BME280;44750;52.040;7.472;2023-09-19T18:34:32;98594.53;;;18.93;nan
58973;BME280;44750;52.040;7.472;2023-09-19T18:39:33;98594.22;;;18.89;nan
58973;BME280;44750;52.040;7.472;2023-09-19T18:44:33;98610.78;;;18.77;nan
58973;BME280;44750;52.040;7.472;2023-09-19T18:49:33;98648.69;;;18.85;nan
58973;BME280;44750;52.040;7.472;2023-09-19T18:54:33;98669.28;;;18.88;nan
58973;BME280;44750;52.040;7.472;2023-09-19T18:59:34;98675.56;;;18.83;nan
58973;BME280;44750;52.040;7.472;2023-09-19T19:04:34;98704.03;;;18.82;nan
58973;BME280;44750;52.040;7.472;2023-09-19T19:09:36;98686.34;;;18.68;nan
58973;BME280;44750;52.040;7.472;2023-09-19T19:14:36;98706.31;;;18.68;nan
58973;BME280;44750;52.040;7.472;2023-09-19T19:19:36;98716.94;;;18.60;nan
58973;BME280;44750;52.040;7.472;2023-09-19T19:24:37;98739.84;;;18.53;nan
58973;BME280;44750;52.040;7.472;2023-09-19T19:29:37;98788.16;;;18.60;nan
58973;BME280;44750;52.040;7.472;2023-09-19T19:34:38;98778.13;;;18.48;nan
58973;BME280;44750;52.040;7.472;2023-09-19T19:39:41;98795.97;;;18.51;nan
58973;BME280;44750;52.040;7.472;2023-09-19T19:44:41;98837.34;;;18.49;nan
58973;BME280;44750;52.040;7.472;2023-09-19T19:49:42;98870.22;;;18.49;nan
58973;BME280;44750;52.040;7.472;2023-09-19T19:54:45;98881.16;;;18.49;nan
58973;BME280;44750;52.040;7.472;2023-09-19T19:59:46;98862.59;;;18.34;nan
58973;BME280;44750;52.040;7.472;2023-09-19T20:04:46;98910.56;;;18.54;nan
58973;BME280;44750;52.040;7.472;2023-09-19T20:09:46;98913.53;;;18.52;nan
58973;BME280;44750;52.040;7.472;2023-09-19T20:14:46;98922.53;;;18.48;nan
58973;BME280;44750;52.040;7.472;2023-09-19T20:19:47;98913.41;;;18.42;nan
58973;BME280;44750;52.040;7.472;2023-09-19T20:24:47;98964.00;;;18.57;nan
58973;BME280;44750;52.040;7.472;2023-09-19T20:29:47;98960.28;;;18.46;nan
58973;BME280;44750;52.040;7.472;2023-09-19T20:34:47;98986.09;;;18.50;nan
58973;BME280;44750;52.040;7.472;2023-09-19T20:39:47;98993.59;;;18.54;nan
58973;BME280;44750;52.040;7.472;2023-09-19T20:44:50;98990.41;;;18.46;nan
58973;BME280;44750;52.040;7.472;2023-09-19T20:49:50;99025.88;;;18.52;nan
58973;BME280;44750;52.040;7.472;2023-09-19T20:54:50;99054.59;;;18.50;nan
58973;BME280;44750;52.040;7.472;2023-09-19T20:59:50;99057.00;;;18.46;nan
58973;BME280;44750;52.040;7.472;2023-09-19T21:04:51;99079.78;;;18.35;nan
58973;BME280;44750;52.040;7.472;2023-09-19T21:09:51;99098.97;;;18.35;nan
58973;BME280;44750;52.040;7.472;2023-09-19T21:14:53;99137.94;;;18.37;nan
58973;BME280;44750;52.040;7.472;2023-09-19T21:19:53;99154.34;;;18.37;nan
58973;BME280;44750;52.040;7.472;2023-09-19T21:24:53;99166.38;;;18.36;nan
58973;BME280;44750;52.040;7.472;2023-09-19T21:29:54;99152.78;;;18.41;nan
58973;BME280;44750;52.040;7.472;2023-09-19T21:34:56;99183.63;;;18.48;nan
58973;BME280;44750;52.040;7.472;2023-09-19T21:39:56;99166.50;;;18.41;nan
58973;BME280;44750;52.040;7.472;2023-09-19T21:44:56;99148.78;;;18.32;nan
58973;BME280;44750;52.040;7.472;2023-09-19T21:49:56;99159.72;;;18.32;nan
58973;BME280;44750;52.040;7.472;2023-09-19T21:54:58;99185.31;;;18.37;nan
58973;BME280;44750;52.040;7.472;2023-09-19T21:59:58;99193.78;;;18.36;nan
58973;BME280;44750;52.040;7.472;2023-09-19T22:04:58;99195.44;;;18.37;nan
58973;BME280;44750;52.040;7.472;2023-09-19T22:09:59;99205.56;;;18.36;nan
58973;BME280;44750;52.040;7.472;2023-09-19T22:14:59;99216.06;;;18.40;nan
58973;BME280;44750;52.040;7.472;2023-09-19T22:19:59;99223.78;;;18.43;nan
58973;BME280;44750;52.040;7.472;2023-09-19T22:24:59;99226.66;;;18.36;nan
58973;BME280;44750;52.040;7.472;2023-09-19T22:30:00;99268.44;;;18.43;nan
58973;BME280;44750;52.040;7.472;2023-09-19T22:35:00;99267.84;;;18.41;nan
58973;BME280;44750;52.040;7.472;2023-09-19T22:40:01;99285.97;;;18.42;nan
58973;BME280;44750;52.040;7.472;2023-09-19T22:45:01;99285.97;;;18.42;nan
58973;BME280;44750;52.040;7.472;2023-09-19T22:50:02;99294.75;;;18.44;nan
58973;BME280;44750;52.040;7.472;2023-09-19T22:55:03;99306.91;;;18.48;nan
58973;BME280;44750;52.040;7.472;2023-09-19T23:00:04;99306.56;;;18.45;nan
58973;BME280;44750;52.040;7.472;2023-09-19T23:05:04;99299.78;;;18.47;nan
58973;BME280;44750;52.040;7.472;2023-09-19T23:10:05;99330.50;;;18.49;nan
58973;BME280;44750;52.040;7.472;2023-09-19T23:15:06;99334.19;;;18.43;nan
58973;BME280;44750;52.040;7.472;2023-09-19T23:20:06;99351.22;;;18.45;nan
58973;BME280;44750;52.040;7.472;2023-09-19T23:25:08;99352.53;;;18.43;nan
58973;BME280;44750;52.040;7.472;2023-09-19T23:30:08;99342.06;;;18.40;nan
58973;BME280;44750;52.040;7.472;2023-09-19T23:35:09;99347.19;;;18.36;nan
58973;BME280;44750;52.040;7.472;2023-09-19T23:40:09;99374.34;;;18.37;nan
58973;BME280;44750;52.040;7.472;2023-09-19T23:45:09;99384.00;;;18.40;nan
58973;BME280;44750;52.040;7.472;2023-09-19T23:50:10;99380.53;;;18.33;nan
58973;BME280;44750;52.040;7.472;2023-09-19T23:55:10;99400.28;;;18.35;nan
